Time;durP1;ratioP1;P1;durP2;ratioP2;P2;SDS_P1;SDS_P2;PMS_P1;PMS_P2;Temp;Humidity;BMP_temperature;BMP_pressure;BME280_temperature;BME280_humidity;BME280_pressure;Samples;Min_cycle;Max_cycle;Signal;HPM_P1;HPM_P2
2022/03/13 21:20:19;;;;;;;25.52;14.70;;;11.70;69.20;;;;;;4734727;27;10001576;-63
2022/03/13 21:22:45;;;;;;;27.25;15.13;;;11.30;69.30;;;;;;5074528;28;20027;-63
2022/03/13 21:25:13;;;;;;;25.50;14.43;;;11.30;69.10;;;;;;5074599;28;20032;-64
2022/03/13 21:27:40;;;;;;;26.37;14.90;;;11.30;69.20;;;;;;5076285;28;20047;-63
2022/03/13 21:30:08;;;;;;;27.13;16.17;;;11.40;69.10;;;;;;5056081;28;20078;-62
2022/03/13 21:32:34;;;;;;;25.73;14.60;;;11.40;68.70;;;;;;5054280;28;20054;-62
2022/03/13 21:35:00;;;;;;;24.17;14.77;;;11.50;68.70;;;;;;5055038;28;20033;-63
2022/03/13 21:37:26;;;;;;;25.65;14.70;;;11.50;68.70;;;;;;5053352;28;20021;-62
2022/03/13 21:39:51;;;;;;;27.10;15.27;;;11.50;68.50;;;;;;5087034;28;20035;-61
2022/03/13 21:42:17;;;;;;;24.13;14.25;;;11.50;68.50;;;;;;5056058;28;20025;-62
2022/03/13 21:44:43;;;;;;;25.80;15.05;;;11.40;68.60;;;;;;5053763;28;20017;-62
2022/03/13 21:47:09;;;;;;;25.35;15.13;;;11.40;68.70;;;;;;5054599;28;20013;-63
2022/03/13 21:49:35;;;;;;;24.70;13.82;;;11.40;68.80;;;;;;5055814;28;20021;-62
2022/03/13 21:52:01;;;;;;;25.63;14.93;;;11.40;68.90;;;;;;5053955;28;20043;-63
2022/03/13 21:54:27;;;;;;;25.63;14.88;;;11.30;68.60;;;;;;5055372;28;20048;-63
2022/03/13 21:56:52;;;;;;;26.58;15.05;;;11.30;68.60;;;;;;5053195;28;20029;-64
2022/03/13 21:59:18;;;;;;;29.23;15.52;;;11.30;68.70;;;;;;5049024;28;20624;-63
2022/03/13 22:01:43;;;;;;;27.25;15.02;;;11.30;68.70;;;;;;5046228;28;20018;-63
2022/03/13 22:04:10;;;;;;;25.85;15.18;;;11.30;68.80;;;;;;5045121;28;20018;-63
2022/03/13 22:06:39;;;;;;;24.83;14.85;;;11.20;68.90;;;;;;5044287;28;20454;-64
2022/03/13 22:09:08;;;;;;;26.30;16.27;;;11.20;68.80;;;;;;5045115;28;20017;-63
2022/03/13 22:11:46;;;;;;;27.98;16.77;;;11.20;68.90;;;;;;5058805;28;20058;-64
2022/03/13 22:14:15;;;;;;;26.43;15.63;;;11.20;68.40;;;;;;5063811;28;20601;-62
2022/03/13 22:16:42;;;;;;;25.85;16.58;;;11.20;68.90;;;;;;5067563;28;20069;-63
2022/03/13 22:19:08;;;;;;;27.43;16.10;;;11.30;68.90;;;;;;5068942;28;20097;-63
2022/03/13 22:21:34;;;;;;;27.92;15.95;;;11.20;68.70;;;;;;5063219;28;20534;-62
2022/03/13 22:24:00;;;;;;;26.92;17.05;;;11.20;68.60;;;;;;5046517;28;20147;-62
2022/03/13 22:26:25;;;;;;;27.33;15.77;;;11.20;69.00;;;;;;5046916;28;20030;-62
2022/03/13 22:28:51;;;;;;;27.98;16.25;;;11.10;69.20;;;;;;5044284;28;20032;-58
2022/03/13 22:31:18;;;;;;;27.13;16.38;;;11.10;69.80;;;;;;5032250;28;20535;-60
2022/03/13 22:33:44;;;;;;;29.60;16.85;;;11.00;70.10;;;;;;5031590;28;20144;-59
2022/03/13 22:36:10;;;;;;;27.20;15.35;;;11.00;69.80;;;;;;5032558;28;20187;-62
2022/03/13 22:38:35;;;;;;;26.63;16.63;;;10.90;69.90;;;;;;5032365;28;20036;-64
2022/03/13 22:41:01;;;;;;;27.73;16.00;;;10.80;70.50;;;;;;5037109;28;20029;-63
2022/03/13 22:43:27;;;;;;;26.33;15.70;;;10.80;70.40;;;;;;5040377;28;20025;-63
2022/03/13 22:45:53;;;;;;;26.33;15.90;;;10.80;71.20;;;;;;5051457;28;20055;-63
2022/03/13 22:48:19;;;;;;;25.80;15.27;;;10.70;70.80;;;;;;5052058;28;20037;-63
2022/03/13 22:51:04;;;;;;;26.77;17.08;;;10.70;70.70;;;;;;5051382;28;20031;-63
2022/03/13 22:53:31;;;;;;;26.52;15.63;;;10.60;70.90;;;;;;5049498;28;20569;-64
2022/03/13 22:55:57;;;;;;;25.85;16.02;;;10.50;71.10;;;;;;5051360;28;20100;-64
2022/03/13 22:58:28;;;;;;;26.85;15.95;;;10.50;71.10;;;;;;5050738;28;20074;-63
2022/03/13 23:00:55;;;;;;;27.65;15.65;;;10.40;71.50;;;;;;5050887;28;20021;-63
2022/03/13 23:03:21;;;;;;;29.38;18.13;;;10.40;72.10;;;;;;5049615;28;20055;-64
2022/03/13 23:05:47;;;;;;;26.77;16.02;;;10.30;72.00;;;;;;5050903;28;20056;-64
2022/03/13 23:08:12;;;;;;;30.80;16.10;;;10.30;72.40;;;;;;5050704;28;20441;-63
2022/03/13 23:10:39;;;;;;;26.80;15.65;;;10.20;72.50;;;;;;5050688;28;20032;-63
2022/03/13 23:13:12;;;;;;;27.30;16.23;;;10.20;72.60;;;;;;5050573;28;20051;-63
2022/03/13 23:15:38;;;;;;;28.30;17.10;;;10.20;72.80;;;;;;5050923;28;20024;-63
2022/03/13 23:18:08;;;;;;;26.83;16.42;;;10.30;72.80;;;;;;5051095;28;20744;-63
2022/03/13 23:20:36;;;;;;;26.88;16.48;;;10.30;72.60;;;;;;5051701;28;20021;-63
2022/03/13 23:23:04;;;;;;;26.30;15.60;;;10.30;73.10;;;;;;5033369;28;20034;-63
2022/03/13 23:25:31;;;;;;;29.88;16.70;;;10.30;73.20;;;;;;5031657;28;20079;-63
2022/03/13 23:27:57;;;;;;;27.77;15.73;;;10.30;73.50;;;;;;5030317;28;20790;-64
2022/03/13 23:30:22;;;;;;;28.38;17.30;;;10.30;73.20;;;;;;5030230;28;20097;-64
2022/03/13 23:32:49;;;;;;;28.85;16.38;;;10.30;73.60;;;;;;5030294;28;20057;-64
2022/03/13 23:35:14;;;;;;;31.55;17.60;;;10.20;73.90;;;;;;5030142;28;20375;-64
2022/03/13 23:37:42;;;;;;;29.50;16.38;;;10.20;73.80;;;;;;5028845;28;20032;-63
2022/03/13 23:40:09;;;;;;;28.40;16.73;;;10.20;73.00;;;;;;5029746;28;20041;-63
2022/03/13 23:42:35;;;;;;;30.83;17.58;;;10.20;73.90;;;;;;5029177;28;20018;-63
2022/03/13 23:45:01;;;;;;;28.23;16.90;;;10.20;73.70;;;;;;5028535;28;20102;-63
2022/03/13 23:47:26;;;;;;;28.70;17.75;;;10.30;74.00;;;;;;5028774;28;20026;-62
2022/03/13 23:49:52;;;;;;;28.13;16.63;;;10.30;73.80;;;;;;5030146;28;20108;-63
2022/03/13 23:52:17;;;;;;;30.17;17.80;;;10.40;73.80;;;;;;5030289;28;20032;-63
2022/03/13 23:54:43;;;;;;;26.95;16.73;;;10.40;73.90;;;;;;5028709;28;20025;-63
2022/03/13 23:57:09;;;;;;;26.13;17.10;;;10.40;73.10;;;;;;5030293;28;20100;-63
2022/03/13 23:59:35;;;;;;;24.27;16.30;;;10.40;72.90;;;;;;5029545;28;20033;-64
